sensor_id;sensor_type;location;lat;lon;timestamp;P1;durP1;ratioP1;P2;durP2;ratioP2
69220;SDS011;56331;51.992;20.910;2023-03-01T00:00:39;19.73;;;12.10;;
69220;SDS011;56331;51.992;20.910;2023-03-01T00:03:08;20.25;;;12.60;;
69220;SDS011;56331;51.992;20.910;2023-03-01T00:05:35;20.02;;;12.25;;
69220;SDS011;56331;51.992;20.910;2023-03-01T00:08:01;21.68;;;11.95;;
69220;SDS011;56331;51.992;20.910;2023-03-01T00:10:27;19.60;;;12.15;;
69220;SDS011;56331;51.992;20.910;2023-03-01T00:12:54;19.17;;;11.78;;
69220;SDS011;56331;51.992;20.910;2023-03-01T00:15:22;18.00;;;11.93;;
69220;SDS011;56331;51.992;20.910;2023-03-01T00:17:48;19.57;;;12.15;;
69220;SDS011;56331;51.992;20.910;2023-03-01T00:20:15;19.42;;;11.78;;
69220;SDS011;56331;51.992;20.910;2023-03-01T00:22:42;20.52;;;11.93;;
69220;SDS011;56331;51.992;20.910;2023-03-01T00:25:11;19.05;;;11.30;;
69220;SDS011;56331;51.992;20.910;2023-03-01T00:27:37;18.75;;;11.80;;
69220;SDS011;56331;51.992;20.910;2023-03-01T00:30:04;19.17;;;11.20;;
69220;SDS011;56331;51.992;20.910;2023-03-01T00:32:31;20.10;;;11.83;;
69220;SDS011;56331;51.992;20.910;2023-03-01T00:34:58;18.37;;;11.57;;
69220;SDS011;56331;51.992;20.910;2023-03-01T00:37:24;19.87;;;11.20;;
69220;SDS011;56331;51.992;20.910;2023-03-01T00:39:51;17.50;;;10.98;;
69220;SDS011;56331;51.992;20.910;2023-03-01T00:42:18;17.40;;;11.03;;
69220;SDS011;56331;51.992;20.910;2023-03-01T00:44:45;19.40;;;11.50;;
69220;SDS011;56331;51.992;20.910;2023-03-01T00:47:11;16.87;;;10.68;;
69220;SDS011;56331;51.992;20.910;2023-03-01T00:49:38;18.92;;;11.68;;
69220;SDS011;56331;51.992;20.910;2023-03-01T00:52:04;16.57;;;10.70;;
69220;SDS011;56331;51.992;20.910;2023-03-01T00:54:31;18.30;;;11.00;;
69220;SDS011;56331;51.992;20.910;2023-03-01T00:56:57;17.42;;;10.30;;
69220;SDS011;56331;51.992;20.910;2023-03-01T00:59:24;17.15;;;10.93;;
69220;SDS011;56331;51.992;20.910;2023-03-01T01:01:55;16.52;;;10.58;;
69220;SDS011;56331;51.992;20.910;2023-03-01T01:04:22;16.10;;;10.82;;
69220;SDS011;56331;51.992;20.910;2023-03-01T01:06:48;16.20;;;10.30;;
69220;SDS011;56331;51.992;20.910;2023-03-01T01:09:16;17.12;;;10.95;;
69220;SDS011;56331;51.992;20.910;2023-03-01T01:11:44;14.98;;;10.48;;
69220;SDS011;56331;51.992;20.910;2023-03-01T01:14:12;16.20;;;10.55;;
69220;SDS011;56331;51.992;20.910;2023-03-01T01:16:46;17.02;;;10.82;;
69220;SDS011;56331;51.992;20.910;2023-03-01T01:19:13;15.95;;;10.53;;
69220;SDS011;56331;51.992;20.910;2023-03-01T01:21:40;14.73;;;10.55;;
69220;SDS011;56331;51.992;20.910;2023-03-01T01:24:09;17.57;;;10.60;;
69220;SDS011;56331;51.992;20.910;2023-03-01T01:26:35;16.52;;;10.23;;
69220;SDS011;56331;51.992;20.910;2023-03-01T01:29:02;15.50;;;10.78;;
69220;SDS011;56331;51.992;20.910;2023-03-01T01:31:30;17.23;;;10.32;;
69220;SDS011;56331;51.992;20.910;2023-03-01T01:33:58;16.57;;;10.32;;
69220;SDS011;56331;51.992;20.910;2023-03-01T01:36:26;15.65;;;11.00;;
69220;SDS011;56331;51.992;20.910;2023-03-01T01:38:54;17.00;;;10.70;;
69220;SDS011;56331;51.992;20.910;2023-03-01T01:41:20;13.62;;;9.50;;
69220;SDS011;56331;51.992;20.910;2023-03-01T01:43:49;16.10;;;10.75;;
69220;SDS011;56331;51.992;20.910;2023-03-01T01:46:25;15.48;;;10.28;;
69220;SDS011;56331;51.992;20.910;2023-03-01T01:49:04;14.73;;;9.28;;
69220;SDS011;56331;51.992;20.910;2023-03-01T01:51:35;13.03;;;9.48;;
69220;SDS011;56331;51.992;20.910;2023-03-01T01:54:10;16.95;;;10.38;;
69220;SDS011;56331;51.992;20.910;2023-03-01T01:56:42;15.55;;;10.35;;
69220;SDS011;56331;51.992;20.910;2023-03-01T01:59:12;16.67;;;10.15;;
69220;SDS011;56331;51.992;20.910;2023-03-01T02:01:40;16.02;;;10.03;;
69220;SDS011;56331;51.992;20.910;2023-03-01T02:04:06;16.85;;;10.28;;
69220;SDS011;56331;51.992;20.910;2023-03-01T02:06:34;15.25;;;10.20;;
69220;SDS011;56331;51.992;20.910;2023-03-01T02:09:14;15.48;;;9.43;;
69220;SDS011;56331;51.992;20.910;2023-03-01T02:11:42;15.00;;;10.03;;
69220;SDS011;56331;51.992;20.910;2023-03-01T02:14:10;17.42;;;9.98;;
69220;SDS011;56331;51.992;20.910;2023-03-01T02:16:37;14.73;;;9.78;;
69220;SDS011;56331;51.992;20.910;2023-03-01T02:19:04;14.13;;;9.43;;
69220;SDS011;56331;51.992;20.910;2023-03-01T02:26:54;14.55;;;10.08;;
69220;SDS011;56331;51.992;20.910;2023-03-01T02:29:22;14.95;;;9.60;;
69220;SDS011;56331;51.992;20.910;2023-03-01T02:31:50;13.25;;;9.55;;
69220;SDS011;56331;51.992;20.910;2023-03-01T02:34:20;15.13;;;9.68;;
69220;SDS011;56331;51.992;20.910;2023-03-01T02:36:52;13.68;;;9.03;;
69220;SDS011;56331;51.992;20.910;2023-03-01T02:39:34;13.88;;;8.85;;
69220;SDS011;56331;51.992;20.910;2023-03-01T02:42:13;15.03;;;9.88;;
69220;SDS011;56331;51.992;20.910;2023-03-01T02:44:41;14.13;;;9.08;;
69220;SDS011;56331;51.992;20.910;2023-03-01T02:47:08;15.08;;;9.43;;
69220;SDS011;56331;51.992;20.910;2023-03-01T02:49:35;17.17;;;9.53;;
69220;SDS011;56331;51.992;20.910;2023-03-01T02:54:40;14.38;;;9.45;;
69220;SDS011;56331;51.992;20.910;2023-03-01T02:57:18;12.65;;;8.45;;
69220;SDS011;56331;51.992;20.910;2023-03-01T02:59:47;14.65;;;9.50;;
69220;SDS011;56331;51.992;20.910;2023-03-01T03:02:20;13.68;;;9.58;;
69220;SDS011;56331;51.992;20.910;2023-03-01T03:04:50;13.22;;;9.05;;
69220;SDS011;56331;51.992;20.910;2023-03-01T03:07:16;15.25;;;9.80;;
69220;SDS011;56331;51.992;20.910;2023-03-01T03:09:43;14.78;;;9.60;;
69220;SDS011;56331;51.992;20.910;2023-03-01T03:12:10;14.33;;;9.50;;
69220;SDS011;56331;51.992;20.910;2023-03-01T03:14:36;14.00;;;9.38;;
69220;SDS011;56331;51.992;20.910;2023-03-01T03:17:03;13.98;;;9.98;;
69220;SDS011;56331;51.992;20.910;2023-03-01T03:19:31;14.75;;;9.38;;
69220;SDS011;56331;51.992;20.910;2023-03-01T03:24:40;15.75;;;10.25;;
69220;SDS011;56331;51.992;20.910;2023-03-01T03:27:07;14.25;;;9.70;;
69220;SDS011;56331;51.992;20.910;2023-03-01T03:29:34;14.15;;;9.93;;
69220;SDS011;56331;51.992;20.910;2023-03-01T03:32:01;15.85;;;10.43;;
69220;SDS011;56331;51.992;20.910;2023-03-01T03:34:27;15.68;;;9.83;;
69220;SDS011;56331;51.992;20.910;2023-03-01T03:36:54;14.90;;;9.25;;
69220;SDS011;56331;51.992;20.910;2023-03-01T03:39:28;14.58;;;9.28;;
69220;SDS011;56331;51.992;20.910;2023-03-01T03:41:58;14.98;;;10.08;;
69220;SDS011;56331;51.992;20.910;2023-03-01T03:44:25;13.20;;;9.48;;
69220;SDS011;56331;51.992;20.910;2023-03-01T03:46:51;14.23;;;9.88;;
69220;SDS011;56331;51.992;20.910;2023-03-01T03:49:18;15.38;;;10.03;;
69220;SDS011;56331;51.992;20.910;2023-03-01T03:51:45;13.83;;;9.50;;
69220;SDS011;56331;51.992;20.910;2023-03-01T03:54:12;12.98;;;9.35;;
69220;SDS011;56331;51.992;20.910;2023-03-01T03:56:38;12.93;;;8.98;;
69220;SDS011;56331;51.992;20.910;2023-03-01T03:59:14;13.60;;;9.68;;
69220;SDS011;56331;51.992;20.910;2023-03-01T04:01:40;13.72;;;8.63;;
69220;SDS011;56331;51.992;20.910;2023-03-01T04:04:07;12.33;;;8.23;;
69220;SDS011;56331;51.992;20.910;2023-03-01T04:06:42;13.68;;;8.75;;
69220;SDS011;56331;51.992;20.910;2023-03-01T04:09:09;14.00;;;9.05;;
69220;SDS011;56331;51.992;20.910;2023-03-01T04:11:45;12.80;;;8.70;;
69220;SDS011;56331;51.992;20.910;2023-03-01T04:14:11;12.33;;;8.43;;
69220;SDS011;56331;51.992;20.910;2023-03-01T04:16:38;13.40;;;8.65;;
69220;SDS011;56331;51.992;20.910;2023-03-01T04:19:04;13.25;;;8.80;;
69220;SDS011;56331;51.992;20.910;2023-03-01T04:21:32;13.62;;;8.78;;
69220;SDS011;56331;51.992;20.910;2023-03-01T04:23:58;12.98;;;8.75;;
69220;SDS011;56331;51.992;20.910;2023-03-01T04:26:25;13.98;;;8.80;;
69220;SDS011;56331;51.992;20.910;2023-03-01T04:28:53;14.45;;;8.98;;
69220;SDS011;56331;51.992;20.910;2023-03-01T04:31:20;12.33;;;8.35;;
69220;SDS011;56331;51.992;20.910;2023-03-01T04:33:54;12.98;;;8.45;;
69220;SDS011;56331;51.992;20.910;2023-03-01T04:36:24;13.38;;;8.60;;
69220;SDS011;56331;51.992;20.910;2023-03-01T04:38:51;14.53;;;9.60;;
69220;SDS011;56331;51.992;20.910;2023-03-01T04:41:19;13.20;;;9.00;;
69220;SDS011;56331;51.992;20.910;2023-03-01T04:43:47;12.77;;;8.57;;
69220;SDS011;56331;51.992;20.910;2023-03-01T04:46:15;14.53;;;8.33;;
69220;SDS011;56331;51.992;20.910;2023-03-01T04:48:47;12.25;;;7.78;;
69220;SDS011;56331;51.992;20.910;2023-03-01T04:51:13;14.98;;;8.95;;
69220;SDS011;56331;51.992;20.910;2023-03-01T04:53:39;12.70;;;8.30;;
69220;SDS011;56331;51.992;20.910;2023-03-01T04:56:07;13.60;;;8.30;;
69220;SDS011;56331;51.992;20.910;2023-03-01T04:58:33;13.78;;;8.48;;
69220;SDS011;56331;51.992;20.910;2023-03-01T05:01:00;11.25;;;7.83;;
69220;SDS011;56331;51.992;20.910;2023-03-01T05:03:26;11.28;;;7.87;;
69220;SDS011;56331;51.992;20.910;2023-03-01T05:05:54;12.47;;;7.97;;
69220;SDS011;56331;51.992;20.910;2023-03-01T05:08:22;13.20;;;8.33;;
69220;SDS011;56331;51.992;20.910;2023-03-01T05:10:49;12.65;;;8.15;;
69220;SDS011;56331;51.992;20.910;2023-03-01T05:13:21;12.37;;;8.25;;
69220;SDS011;56331;51.992;20.910;2023-03-01T05:15:57;12.98;;;8.45;;
69220;SDS011;56331;51.992;20.910;2023-03-01T05:18:23;12.33;;;8.18;;
69220;SDS011;56331;51.992;20.910;2023-03-01T05:20:54;11.18;;;7.45;;
69220;SDS011;56331;51.992;20.910;2023-03-01T05:25:50;12.28;;;7.40;;
69220;SDS011;56331;51.992;20.910;2023-03-01T05:28:18;11.73;;;7.80;;
69220;SDS011;56331;51.992;20.910;2023-03-01T05:30:46;12.85;;;7.90;;
69220;SDS011;56331;51.992;20.910;2023-03-01T05:33:12;12.50;;;7.50;;
69220;SDS011;56331;51.992;20.910;2023-03-01T05:35:40;12.10;;;8.03;;
69220;SDS011;56331;51.992;20.910;2023-03-01T05:38:08;11.33;;;7.47;;
69220;SDS011;56331;51.992;20.910;2023-03-01T05:40:37;11.88;;;8.25;;
69220;SDS011;56331;51.992;20.910;2023-03-01T05:43:04;12.35;;;7.80;;
69220;SDS011;56331;51.992;20.910;2023-03-01T05:45:31;12.45;;;7.58;;
69220;SDS011;56331;51.992;20.910;2023-03-01T05:47:58;13.20;;;8.00;;
69220;SDS011;56331;51.992;20.910;2023-03-01T05:50:28;10.38;;;7.47;;
69220;SDS011;56331;51.992;20.910;2023-03-01T05:55:33;11.38;;;7.28;;
69220;SDS011;56331;51.992;20.910;2023-03-01T05:58:01;11.73;;;7.75;;
69220;SDS011;56331;51.992;20.910;2023-03-01T06:00:29;13.25;;;7.65;;
69220;SDS011;56331;51.992;20.910;2023-03-01T06:03:00;11.75;;;7.65;;
69220;SDS011;56331;51.992;20.910;2023-03-01T06:05:43;12.65;;;8.33;;
69220;SDS011;56331;51.992;20.910;2023-03-01T06:08:11;11.18;;;7.62;;
69220;SDS011;56331;51.992;20.910;2023-03-01T06:10:40;12.65;;;8.13;;
69220;SDS011;56331;51.992;20.910;2023-03-01T06:13:07;10.90;;;7.40;;
69220;SDS011;56331;51.992;20.910;2023-03-01T06:15:33;11.60;;;7.95;;
69220;SDS011;56331;51.992;20.910;2023-03-01T06:18:00;12.95;;;7.87;;
69220;SDS011;56331;51.992;20.910;2023-03-01T06:20:27;10.68;;;7.20;;
69220;SDS011;56331;51.992;20.910;2023-03-01T06:22:56;11.33;;;7.40;;
69220;SDS011;56331;51.992;20.910;2023-03-01T06:25:23;12.55;;;8.13;;
69220;SDS011;56331;51.992;20.910;2023-03-01T06:27:51;10.73;;;7.67;;
69220;SDS011;56331;51.992;20.910;2023-03-01T06:30:18;11.95;;;8.05;;
69220;SDS011;56331;51.992;20.910;2023-03-01T06:32:47;10.20;;;7.55;;
69220;SDS011;56331;51.992;20.910;2023-03-01T06:35:14;10.98;;;7.65;;
69220;SDS011;56331;51.992;20.910;2023-03-01T06:37:44;13.05;;;7.50;;
69220;SDS011;56331;51.992;20.910;2023-03-01T06:40:12;10.32;;;7.25;;
69220;SDS011;56331;51.992;20.910;2023-03-01T06:42:41;10.43;;;7.17;;
69220;SDS011;56331;51.992;20.910;2023-03-01T06:45:09;9.78;;;6.97;;
69220;SDS011;56331;51.992;20.910;2023-03-01T06:47:37;10.53;;;7.53;;
69220;SDS011;56331;51.992;20.910;2023-03-01T06:50:04;11.75;;;7.58;;
69220;SDS011;56331;51.992;20.910;2023-03-01T06:52:31;11.00;;;7.10;;
69220;SDS011;56331;51.992;20.910;2023-03-01T06:54:57;11.20;;;7.72;;
69220;SDS011;56331;51.992;20.910;2023-03-01T06:57:24;10.58;;;7.35;;
69220;SDS011;56331;51.992;20.910;2023-03-01T06:59:51;10.45;;;7.30;;
69220;SDS011;56331;51.992;20.910;2023-03-01T07:02:17;12.98;;;7.75;;
69220;SDS011;56331;51.992;20.910;2023-03-01T07:04:44;11.10;;;6.95;;
69220;SDS011;56331;51.992;20.910;2023-03-01T07:07:10;11.22;;;7.67;;
69220;SDS011;56331;51.992;20.910;2023-03-01T07:09:37;12.82;;;8.00;;
69220;SDS011;56331;51.992;20.910;2023-03-01T07:12:03;11.33;;;7.00;;
69220;SDS011;56331;51.992;20.910;2023-03-01T07:14:30;9.90;;;7.10;;
69220;SDS011;56331;51.992;20.910;2023-03-01T07:16:57;10.63;;;7.25;;
69220;SDS011;56331;51.992;20.910;2023-03-01T07:19:23;11.93;;;7.53;;
69220;SDS011;56331;51.992;20.910;2023-03-01T07:21:50;11.73;;;7.80;;
69220;SDS011;56331;51.992;20.910;2023-03-01T07:24:16;11.60;;;7.55;;
69220;SDS011;56331;51.992;20.910;2023-03-01T07:26:43;12.10;;;7.22;;
69220;SDS011;56331;51.992;20.910;2023-03-01T07:29:15;13.25;;;8.23;;
69220;SDS011;56331;51.992;20.910;2023-03-01T07:31:41;10.82;;;7.12;;
69220;SDS011;56331;51.992;20.910;2023-03-01T07:34:08;11.93;;;7.37;;
69220;SDS011;56331;51.992;20.910;2023-03-01T07:36:34;13.28;;;7.05;;
69220;SDS011;56331;51.992;20.910;2023-03-01T07:39:01;11.78;;;7.33;;
69220;SDS011;56331;51.992;20.910;2023-03-01T07:41:29;12.03;;;7.65;;
69220;SDS011;56331;51.992;20.910;2023-03-01T07:43:55;12.20;;;7.33;;
69220;SDS011;56331;51.992;20.910;2023-03-01T07:46:26;12.98;;;7.33;;
69220;SDS011;56331;51.992;20.910;2023-03-01T07:48:50;14.75;;;7.08;;
69220;SDS011;56331;51.992;20.910;2023-03-01T07:51:17;14.45;;;7.40;;
69220;SDS011;56331;51.992;20.910;2023-03-01T07:53:45;13.25;;;6.75;;
69220;SDS011;56331;51.992;20.910;2023-03-01T07:56:13;10.75;;;6.58;;
69220;SDS011;56331;51.992;20.910;2023-03-01T07:58:42;10.25;;;7.20;;
69220;SDS011;56331;51.992;20.910;2023-03-01T08:01:14;10.60;;;6.67;;
69220;SDS011;56331;51.992;20.910;2023-03-01T08:03:42;10.48;;;6.78;;
69220;SDS011;56331;51.992;20.910;2023-03-01T08:06:09;14.60;;;6.10;;
69220;SDS011;56331;51.992;20.910;2023-03-01T08:08:37;9.73;;;6.22;;
69220;SDS011;56331;51.992;20.910;2023-03-01T08:11:04;10.85;;;6.62;;
69220;SDS011;56331;51.992;20.910;2023-03-01T08:13:32;12.53;;;7.10;;
69220;SDS011;56331;51.992;20.910;2023-03-01T08:16:02;15.60;;;8.63;;
69220;SDS011;56331;51.992;20.910;2023-03-01T08:18:30;18.70;;;8.70;;
69220;SDS011;56331;51.992;20.910;2023-03-01T08:21:01;17.67;;;9.63;;
69220;SDS011;56331;51.992;20.910;2023-03-01T08:23:29;19.87;;;10.80;;
69220;SDS011;56331;51.992;20.910;2023-03-01T08:26:08;25.20;;;11.88;;
69220;SDS011;56331;51.992;20.910;2023-03-01T08:28:32;25.40;;;12.07;;
69220;SDS011;56331;51.992;20.910;2023-03-01T08:30:59;24.35;;;11.70;;
69220;SDS011;56331;51.992;20.910;2023-03-01T08:33:25;25.92;;;11.88;;
69220;SDS011;56331;51.992;20.910;2023-03-01T08:36:04;25.45;;;12.00;;
69220;SDS011;56331;51.992;20.910;2023-03-01T08:38:33;26.40;;;12.43;;
69220;SDS011;56331;51.992;20.910;2023-03-01T08:43:31;23.27;;;12.23;;
69220;SDS011;56331;51.992;20.910;2023-03-01T08:45:58;25.77;;;11.93;;
69220;SDS011;56331;51.992;20.910;2023-03-01T08:48:25;27.40;;;12.93;;
69220;SDS011;56331;51.992;20.910;2023-03-01T08:50:54;24.15;;;11.40;;
69220;SDS011;56331;51.992;20.910;2023-03-01T08:53:21;24.65;;;11.80;;
69220;SDS011;56331;51.992;20.910;2023-03-01T08:55:48;24.82;;;12.20;;
69220;SDS011;56331;51.992;20.910;2023-03-01T08:58:14;21.70;;;10.78;;
69220;SDS011;56331;51.992;20.910;2023-03-01T09:00:40;24.67;;;11.12;;
69220;SDS011;56331;51.992;20.910;2023-03-01T09:03:07;22.42;;;11.15;;
69220;SDS011;56331;51.992;20.910;2023-03-01T09:05:33;20.62;;;11.22;;
69220;SDS011;56331;51.992;20.910;2023-03-01T09:08:01;21.23;;;11.15;;
69220;SDS011;56331;51.992;20.910;2023-03-01T09:10:28;19.67;;;10.75;;
69220;SDS011;56331;51.992;20.910;2023-03-01T09:12:54;18.50;;;10.38;;
69220;SDS011;56331;51.992;20.910;2023-03-01T09:15:23;21.90;;;10.45;;
69220;SDS011;56331;51.992;20.910;2023-03-01T09:17:51;20.08;;;10.08;;
69220;SDS011;56331;51.992;20.910;2023-03-01T09:20:18;20.02;;;9.48;;
69220;SDS011;56331;51.992;20.910;2023-03-01T09:22:44;21.02;;;9.93;;
69220;SDS011;56331;51.992;20.910;2023-03-01T09:25:11;20.62;;;9.85;;
69220;SDS011;56331;51.992;20.910;2023-03-01T09:27:37;19.50;;;9.70;;
69220;SDS011;56331;51.992;20.910;2023-03-01T09:30:03;18.57;;;9.33;;
69220;SDS011;56331;51.992;20.910;2023-03-01T09:32:31;17.20;;;8.68;;
69220;SDS011;56331;51.992;20.910;2023-03-01T09:34:57;19.98;;;9.98;;
69220;SDS011;56331;51.992;20.910;2023-03-01T09:37:29;19.20;;;8.95;;
69220;SDS011;56331;51.992;20.910;2023-03-01T09:39:55;18.27;;;8.53;;
69220;SDS011;56331;51.992;20.910;2023-03-01T09:42:21;17.73;;;8.48;;
69220;SDS011;56331;51.992;20.910;2023-03-01T09:44:51;15.88;;;8.13;;
69220;SDS011;56331;51.992;20.910;2023-03-01T09:47:22;15.83;;;8.30;;
69220;SDS011;56331;51.992;20.910;2023-03-01T09:50:09;15.72;;;7.87;;
69220;SDS011;56331;51.992;20.910;2023-03-01T09:55:56;12.20;;;7.17;;
69220;SDS011;56331;51.992;20.910;2023-03-01T10:01:10;10.23;;;6.03;;
69220;SDS011;56331;51.992;20.910;2023-03-01T10:03:39;12.75;;;6.20;;
69220;SDS011;56331;51.992;20.910;2023-03-01T10:06:20;8.95;;;5.53;;
69220;SDS011;56331;51.992;20.910;2023-03-01T10:09:07;10.18;;;5.85;;
69220;SDS011;56331;51.992;20.910;2023-03-01T10:11:36;11.28;;;5.62;;
69220;SDS011;56331;51.992;20.910;2023-03-01T10:14:07;10.10;;;6.12;;
69220;SDS011;56331;51.992;20.910;2023-03-01T10:16:57;9.15;;;5.30;;
69220;SDS011;56331;51.992;20.910;2023-03-01T10:19:30;11.50;;;5.58;;
69220;SDS011;56331;51.992;20.910;2023-03-01T10:22:27;7.75;;;5.10;;
69220;SDS011;56331;51.992;20.910;2023-03-01T10:24:43;8.20;;;5.03;;
69220;SDS011;56331;51.992;20.910;2023-03-01T10:27:19;6.60;;;4.40;;
69220;SDS011;56331;51.992;20.910;2023-03-01T10:32:42;8.35;;;4.40;;
69220;SDS011;56331;51.992;20.910;2023-03-01T10:35:23;7.78;;;4.45;;
69220;SDS011;56331;51.992;20.910;2023-03-01T10:38:10;7.83;;;4.40;;
69220;SDS011;56331;51.992;20.910;2023-03-01T10:40:50;7.87;;;4.67;;
69220;SDS011;56331;51.992;20.910;2023-03-01T10:43:24;6.40;;;4.30;;
69220;SDS011;56331;51.992;20.910;2023-03-01T10:45:52;7.08;;;4.35;;
69220;SDS011;56331;51.992;20.910;2023-03-01T10:58:58;7.00;;;4.12;;
69220;SDS011;56331;51.992;20.910;2023-03-01T11:03:45;7.67;;;4.50;;
69220;SDS011;56331;51.992;20.910;2023-03-01T11:08:46;7.00;;;3.80;;
69220;SDS011;56331;51.992;20.910;2023-03-01T11:11:17;6.72;;;4.00;;
69220;SDS011;56331;51.992;20.910;2023-03-01T11:14:07;6.20;;;3.77;;
69220;SDS011;56331;51.992;20.910;2023-03-01T11:16:49;7.65;;;4.20;;
69220;SDS011;56331;51.992;20.910;2023-03-01T11:19:34;5.37;;;3.67;;
69220;SDS011;56331;51.992;20.910;2023-03-01T11:22:07;5.35;;;3.92;;
69220;SDS011;56331;51.992;20.910;2023-03-01T11:24:34;6.42;;;4.00;;
69220;SDS011;56331;51.992;20.910;2023-03-01T11:27:16;6.72;;;3.95;;
69220;SDS011;56331;51.992;20.910;2023-03-01T11:35:37;5.50;;;3.60;;
69220;SDS011;56331;51.992;20.910;2023-03-01T11:40:49;5.83;;;3.27;;
69220;SDS011;56331;51.992;20.910;2023-03-01T11:54:03;8.08;;;3.60;;
69220;SDS011;56331;51.992;20.910;2023-03-01T11:59:25;8.00;;;4.17;;
69220;SDS011;56331;51.992;20.910;2023-03-01T12:02:12;5.40;;;3.50;;
69220;SDS011;56331;51.992;20.910;2023-03-01T12:04:33;6.08;;;3.47;;
69220;SDS011;56331;51.992;20.910;2023-03-01T12:20:12;5.45;;;3.40;;
69220;SDS011;56331;51.992;20.910;2023-03-01T12:25:16;5.72;;;3.33;;
69220;SDS011;56331;51.992;20.910;2023-03-01T12:38:42;4.53;;;3.00;;
69220;SDS011;56331;51.992;20.910;2023-03-01T12:49:25;6.22;;;3.20;;
69220;SDS011;56331;51.992;20.910;2023-03-01T12:52:00;5.05;;;3.33;;
69220;SDS011;56331;51.992;20.910;2023-03-01T12:54:33;4.73;;;3.30;;
69220;SDS011;56331;51.992;20.910;2023-03-01T13:02:35;5.15;;;3.37;;
69220;SDS011;56331;51.992;20.910;2023-03-01T13:10:31;5.60;;;3.40;;
69220;SDS011;56331;51.992;20.910;2023-03-01T13:15:46;4.70;;;2.98;;
69220;SDS011;56331;51.992;20.910;2023-03-01T13:20:51;6.25;;;3.50;;
69220;SDS011;56331;51.992;20.910;2023-03-01T13:28:42;4.58;;;2.72;;
69220;SDS011;56331;51.992;20.910;2023-03-01T13:33:50;5.17;;;3.12;;
69220;SDS011;56331;51.992;20.910;2023-03-01T13:39:02;4.58;;;2.85;;
69220;SDS011;56331;51.992;20.910;2023-03-01T13:44:33;5.62;;;3.02;;
69220;SDS011;56331;51.992;20.910;2023-03-01T13:47:23;6.12;;;3.55;;
69220;SDS011;56331;51.992;20.910;2023-03-01T13:52:27;4.67;;;3.17;;
69220;SDS011;56331;51.992;20.910;2023-03-01T13:57:50;6.25;;;3.40;;
69220;SDS011;56331;51.992;20.910;2023-03-01T14:00:39;5.58;;;3.22;;
69220;SDS011;56331;51.992;20.910;2023-03-01T14:03:08;5.45;;;3.22;;
69220;SDS011;56331;51.992;20.910;2023-03-01T14:05:41;4.35;;;2.83;;
69220;SDS011;56331;51.992;20.910;2023-03-01T14:08:21;4.42;;;3.10;;
69220;SDS011;56331;51.992;20.910;2023-03-01T14:10:53;5.35;;;3.02;;
69220;SDS011;56331;51.992;20.910;2023-03-01T14:13:30;6.67;;;3.33;;
69220;SDS011;56331;51.992;20.910;2023-03-01T14:16:09;5.42;;;3.08;;
69220;SDS011;56331;51.992;20.910;2023-03-01T14:21:45;5.45;;;3.45;;
69220;SDS011;56331;51.992;20.910;2023-03-01T14:24:20;4.67;;;3.10;;
69220;SDS011;56331;51.992;20.910;2023-03-01T14:26:48;5.67;;;3.30;;
69220;SDS011;56331;51.992;20.910;2023-03-01T14:29:25;5.47;;;3.12;;
69220;SDS011;56331;51.992;20.910;2023-03-01T14:34:48;5.03;;;3.40;;
69220;SDS011;56331;51.992;20.910;2023-03-01T14:37:25;4.20;;;3.05;;
69220;SDS011;56331;51.992;20.910;2023-03-01T14:39:59;10.13;;;4.30;;
69220;SDS011;56331;51.992;20.910;2023-03-01T14:42:29;18.73;;;8.90;;
69220;SDS011;56331;51.992;20.910;2023-03-01T14:45:03;25.75;;;12.65;;
69220;SDS011;56331;51.992;20.910;2023-03-01T14:47:35;31.20;;;14.83;;
69220;SDS011;56331;51.992;20.910;2023-03-01T14:52:40;57.53;;;23.60;;
69220;SDS011;56331;51.992;20.910;2023-03-01T14:55:15;53.87;;;24.92;;
69220;SDS011;56331;51.992;20.910;2023-03-01T14:57:47;56.63;;;25.70;;
69220;SDS011;56331;51.992;20.910;2023-03-01T15:00:22;55.23;;;25.37;;
69220;SDS011;56331;51.992;20.910;2023-03-01T15:02:51;60.03;;;25.60;;
69220;SDS011;56331;51.992;20.910;2023-03-01T15:05:25;57.80;;;25.27;;
69220;SDS011;56331;51.992;20.910;2023-03-01T15:07:54;50.73;;;23.77;;
69220;SDS011;56331;51.992;20.910;2023-03-01T15:10:30;56.37;;;23.15;;
69220;SDS011;56331;51.992;20.910;2023-03-01T15:13:12;52.73;;;23.25;;
69220;SDS011;56331;51.992;20.910;2023-03-01T15:15:43;49.18;;;21.95;;
69220;SDS011;56331;51.992;20.910;2023-03-01T15:18:14;45.78;;;20.77;;
69220;SDS011;56331;51.992;20.910;2023-03-01T15:23:19;40.30;;;18.48;;
69220;SDS011;56331;51.992;20.910;2023-03-01T15:25:45;37.38;;;17.90;;
69220;SDS011;56331;51.992;20.910;2023-03-01T15:28:16;34.08;;;15.98;;
69220;SDS011;56331;51.992;20.910;2023-03-01T15:30:41;38.92;;;17.73;;
69220;SDS011;56331;51.992;20.910;2023-03-01T15:33:27;33.78;;;15.70;;
69220;SDS011;56331;51.992;20.910;2023-03-01T15:35:52;34.18;;;16.30;;
69220;SDS011;56331;51.992;20.910;2023-03-01T15:40:56;31.02;;;14.93;;
69220;SDS011;56331;51.992;20.910;2023-03-01T15:43:43;32.17;;;14.68;;
69220;SDS011;56331;51.992;20.910;2023-03-01T15:46:21;30.15;;;15.40;;
69220;SDS011;56331;51.992;20.910;2023-03-01T15:51:26;30.10;;;14.30;;
69220;SDS011;56331;51.992;20.910;2023-03-01T15:53:55;30.37;;;13.60;;
69220;SDS011;56331;51.992;20.910;2023-03-01T15:56:24;30.52;;;13.65;;
69220;SDS011;56331;51.992;20.910;2023-03-01T15:58:50;29.70;;;12.90;;
69220;SDS011;56331;51.992;20.910;2023-03-01T16:01:17;27.07;;;12.90;;
69220;SDS011;56331;51.992;20.910;2023-03-01T16:03:44;28.87;;;13.72;;
69220;SDS011;56331;51.992;20.910;2023-03-01T16:06:10;26.65;;;13.03;;
69220;SDS011;56331;51.992;20.910;2023-03-01T16:08:38;26.57;;;12.78;;
69220;SDS011;56331;51.992;20.910;2023-03-01T16:11:04;28.25;;;12.75;;
69220;SDS011;56331;51.992;20.910;2023-03-01T16:13:33;24.07;;;12.23;;
69220;SDS011;56331;51.992;20.910;2023-03-01T16:16:02;22.85;;;11.68;;
69220;SDS011;56331;51.992;20.910;2023-03-01T16:18:28;23.02;;;11.68;;
69220;SDS011;56331;51.992;20.910;2023-03-01T16:20:54;22.35;;;11.28;;
69220;SDS011;56331;51.992;20.910;2023-03-01T16:23:21;21.70;;;11.43;;
69220;SDS011;56331;51.992;20.910;2023-03-01T16:25:49;24.10;;;12.18;;
69220;SDS011;56331;51.992;20.910;2023-03-01T16:28:15;27.82;;;12.15;;
69220;SDS011;56331;51.992;20.910;2023-03-01T16:30:45;19.45;;;10.60;;
69220;SDS011;56331;51.992;20.910;2023-03-01T16:33:14;24.80;;;11.65;;
69220;SDS011;56331;51.992;20.910;2023-03-01T16:35:41;20.72;;;10.08;;
69220;SDS011;56331;51.992;20.910;2023-03-01T16:38:11;24.63;;;11.33;;
69220;SDS011;56331;51.992;20.910;2023-03-01T16:40:37;20.50;;;10.68;;
69220;SDS011;56331;51.992;20.910;2023-03-01T16:43:04;19.07;;;10.60;;
69220;SDS011;56331;51.992;20.910;2023-03-01T16:45:33;21.33;;;10.48;;
69220;SDS011;56331;51.992;20.910;2023-03-01T16:48:05;23.05;;;11.25;;
69220;SDS011;56331;51.992;20.910;2023-03-01T16:50:32;17.80;;;10.05;;
69220;SDS011;56331;51.992;20.910;2023-03-01T16:52:58;20.25;;;10.70;;
69220;SDS011;56331;51.992;20.910;2023-03-01T16:55:25;18.57;;;10.05;;
69220;SDS011;56331;51.992;20.910;2023-03-01T16:57:51;22.13;;;10.15;;
69220;SDS011;56331;51.992;20.910;2023-03-01T17:00:18;19.30;;;10.40;;
69220;SDS011;56331;51.992;20.910;2023-03-01T17:02:44;17.90;;;9.60;;